sensor_id;sensor_type;location;lat;lon;timestamp;P1;durP1;ratioP1;P2;durP2;ratioP2
462;SDS011;218;51.902;9.542;2023-03-11T00:00:38;5.00;;;4.50;;
462;SDS011;218;51.902;9.542;2023-03-11T00:03:07;4.82;;;4.43;;
462;SDS011;218;51.902;9.542;2023-03-11T00:05:35;4.85;;;4.45;;
462;SDS011;218;51.902;9.542;2023-03-11T00:08:05;4.50;;;4.10;;
462;SDS011;218;51.902;9.542;2023-03-11T00:10:35;4.57;;;3.88;;
462;SDS011;218;51.902;9.542;2023-03-11T00:13:04;3.70;;;3.40;;
462;SDS011;218;51.902;9.542;2023-03-11T00:15:32;3.67;;;3.38;;
462;SDS011;218;51.902;9.542;2023-03-11T00:18:00;3.75;;;3.45;;
462;SDS011;218;51.902;9.542;2023-03-11T00:20:27;4.78;;;3.20;;
462;SDS011;218;51.902;9.542;2023-03-11T00:22:56;3.35;;;3.15;;
462;SDS011;218;51.902;9.542;2023-03-11T00:25:25;3.35;;;3.05;;
462;SDS011;218;51.902;9.542;2023-03-11T00:27:53;3.97;;;3.67;;
462;SDS011;218;51.902;9.542;2023-03-11T00:30:20;3.47;;;3.17;;
462;SDS011;218;51.902;9.542;2023-03-11T00:32:48;3.67;;;3.38;;
462;SDS011;218;51.902;9.542;2023-03-11T00:35:16;2.70;;;2.50;;
462;SDS011;218;51.902;9.542;2023-03-11T00:37:46;3.58;;;3.03;;
462;SDS011;218;51.902;9.542;2023-03-11T00:40:14;2.85;;;2.60;;
462;SDS011;218;51.902;9.542;2023-03-11T00:42:43;2.47;;;2.28;;
462;SDS011;218;51.902;9.542;2023-03-11T00:45:10;2.65;;;2.45;;
462;SDS011;218;51.902;9.542;2023-03-11T00:47:38;2.60;;;2.40;;
462;SDS011;218;51.902;9.542;2023-03-11T00:50:05;3.42;;;2.13;;
462;SDS011;218;51.902;9.542;2023-03-11T00:52:36;2.40;;;2.20;;
462;SDS011;218;51.902;9.542;2023-03-11T00:55:03;2.53;;;1.67;;
462;SDS011;218;51.902;9.542;2023-03-11T00:57:30;2.45;;;2.22;;
462;SDS011;218;51.902;9.542;2023-03-11T00:59:59;3.17;;;2.60;;
462;SDS011;218;51.902;9.542;2023-03-11T01:02:26;3.05;;;2.75;;
462;SDS011;218;51.902;9.542;2023-03-11T01:04:53;3.00;;;2.80;;
462;SDS011;218;51.902;9.542;2023-03-11T01:07:20;2.65;;;2.45;;
462;SDS011;218;51.902;9.542;2023-03-11T01:09:47;2.80;;;2.60;;
462;SDS011;218;51.902;9.542;2023-03-11T01:12:14;2.78;;;2.35;;
462;SDS011;218;51.902;9.542;2023-03-11T01:14:43;2.72;;;2.53;;
462;SDS011;218;51.902;9.542;2023-03-11T01:17:11;2.70;;;2.50;;
462;SDS011;218;51.902;9.542;2023-03-11T01:19:38;3.05;;;2.75;;
462;SDS011;218;51.902;9.542;2023-03-11T01:22:05;3.20;;;2.67;;
462;SDS011;218;51.902;9.542;2023-03-11T01:24:31;5.00;;;2.67;;
462;SDS011;218;51.902;9.542;2023-03-11T01:26:58;2.92;;;2.70;;
462;SDS011;218;51.902;9.542;2023-03-11T01:29:25;3.00;;;2.67;;
462;SDS011;218;51.902;9.542;2023-03-11T01:31:52;3.88;;;2.63;;
462;SDS011;218;51.902;9.542;2023-03-11T01:34:20;2.70;;;2.50;;
462;SDS011;218;51.902;9.542;2023-03-11T01:36:47;3.17;;;2.88;;
462;SDS011;218;51.902;9.542;2023-03-11T01:39:14;2.50;;;2.30;;
462;SDS011;218;51.902;9.542;2023-03-11T01:41:41;2.95;;;2.75;;
462;SDS011;218;51.902;9.542;2023-03-11T01:44:09;2.78;;;2.58;;
462;SDS011;218;51.902;9.542;2023-03-11T01:47:17;2.15;;;2.05;;
462;SDS011;218;51.902;9.542;2023-03-11T01:49:56;2.58;;;2.38;;
462;SDS011;218;51.902;9.542;2023-03-11T01:52:23;3.00;;;2.75;;
462;SDS011;218;51.902;9.542;2023-03-11T01:54:51;2.05;;;1.95;;
462;SDS011;218;51.902;9.542;2023-03-11T01:57:17;2.70;;;2.50;;
462;SDS011;218;51.902;9.542;2023-03-11T01:59:47;3.13;;;2.92;;
462;SDS011;218;51.902;9.542;2023-03-11T02:02:17;2.58;;;2.38;;
462;SDS011;218;51.902;9.542;2023-03-11T02:04:48;2.70;;;2.42;;
462;SDS011;218;51.902;9.542;2023-03-11T02:07:17;2.70;;;1.90;;
462;SDS011;218;51.902;9.542;2023-03-11T02:09:44;4.55;;;2.00;;
462;SDS011;218;51.902;9.542;2023-03-11T02:12:12;2.65;;;2.45;;
462;SDS011;218;51.902;9.542;2023-03-11T02:14:41;2.20;;;2.10;;
462;SDS011;218;51.902;9.542;2023-03-11T02:17:10;2.65;;;1.95;;
462;SDS011;218;51.902;9.542;2023-03-11T02:19:40;4.63;;;2.10;;
462;SDS011;218;51.902;9.542;2023-03-11T02:22:25;2.58;;;2.35;;
462;SDS011;218;51.902;9.542;2023-03-11T02:24:55;1.92;;;1.83;;
462;SDS011;218;51.902;9.542;2023-03-11T02:27:29;2.33;;;1.90;;
462;SDS011;218;51.902;9.542;2023-03-11T02:29:58;2.40;;;2.30;;
462;SDS011;218;51.902;9.542;2023-03-11T02:32:26;2.17;;;2.08;;
462;SDS011;218;51.902;9.542;2023-03-11T02:34:53;3.47;;;2.58;;
462;SDS011;218;51.902;9.542;2023-03-11T02:37:20;3.03;;;1.92;;
462;SDS011;218;51.902;9.542;2023-03-11T02:39:48;2.90;;;2.70;;
462;SDS011;218;51.902;9.542;2023-03-11T02:42:17;2.17;;;2.03;;
462;SDS011;218;51.902;9.542;2023-03-11T02:44:50;2.47;;;2.33;;
462;SDS011;218;51.902;9.542;2023-03-11T02:47:21;2.80;;;2.50;;
462;SDS011;218;51.902;9.542;2023-03-11T02:49:49;3.22;;;2.45;;
462;SDS011;218;51.902;9.542;2023-03-11T02:52:16;3.83;;;2.33;;
462;SDS011;218;51.902;9.542;2023-03-11T02:54:43;2.95;;;2.25;;
462;SDS011;218;51.902;9.542;2023-03-11T02:57:10;2.90;;;2.30;;
462;SDS011;218;51.902;9.542;2023-03-11T02:59:37;3.03;;;2.50;;
462;SDS011;218;51.902;9.542;2023-03-11T03:02:05;3.00;;;2.70;;
462;SDS011;218;51.902;9.542;2023-03-11T03:04:32;3.40;;;2.10;;
462;SDS011;218;51.902;9.542;2023-03-11T03:06:59;2.88;;;2.55;;
462;SDS011;218;51.902;9.542;2023-03-11T03:09:26;2.45;;;2.25;;
462;SDS011;218;51.902;9.542;2023-03-11T03:11:52;7.65;;;3.30;;
462;SDS011;218;51.902;9.542;2023-03-11T03:14:19;2.22;;;2.03;;
462;SDS011;218;51.902;9.542;2023-03-11T03:16:46;5.18;;;2.92;;
462;SDS011;218;51.902;9.542;2023-03-11T03:19:14;3.00;;;2.47;;
462;SDS011;218;51.902;9.542;2023-03-11T03:21:41;5.13;;;3.28;;
462;SDS011;218;51.902;9.542;2023-03-11T03:24:08;5.43;;;2.90;;
462;SDS011;218;51.902;9.542;2023-03-11T03:26:35;3.30;;;2.85;;
462;SDS011;218;51.902;9.542;2023-03-11T03:29:02;4.78;;;3.60;;
462;SDS011;218;51.902;9.542;2023-03-11T03:31:30;2.25;;;2.15;;
462;SDS011;218;51.902;9.542;2023-03-11T03:33:57;3.08;;;2.78;;
462;SDS011;218;51.902;9.542;2023-03-11T03:36:25;3.00;;;1.90;;
462;SDS011;218;51.902;9.542;2023-03-11T03:38:53;4.68;;;3.33;;
462;SDS011;218;51.902;9.542;2023-03-11T03:41:20;2.50;;;2.30;;
462;SDS011;218;51.902;9.542;2023-03-11T03:43:47;3.95;;;2.50;;
462;SDS011;218;51.902;9.542;2023-03-11T03:46:14;4.68;;;2.00;;
462;SDS011;218;51.902;9.542;2023-03-11T03:48:41;3.53;;;2.28;;
462;SDS011;218;51.902;9.542;2023-03-11T03:51:09;2.47;;;2.20;;
462;SDS011;218;51.902;9.542;2023-03-11T03:53:39;2.55;;;2.35;;
462;SDS011;218;51.902;9.542;2023-03-11T03:56:07;5.55;;;2.72;;
462;SDS011;218;51.902;9.542;2023-03-11T03:58:35;3.20;;;2.80;;
462;SDS011;218;51.902;9.542;2023-03-11T04:01:02;3.08;;;2.78;;
462;SDS011;218;51.902;9.542;2023-03-11T04:03:30;3.17;;;1.95;;
462;SDS011;218;51.902;9.542;2023-03-11T04:06:05;2.22;;;1.80;;
462;SDS011;218;51.902;9.542;2023-03-11T04:08:33;4.50;;;2.05;;
462;SDS011;218;51.902;9.542;2023-03-11T04:11:02;5.43;;;2.50;;
462;SDS011;218;51.902;9.542;2023-03-11T04:13:29;3.92;;;2.17;;
462;SDS011;218;51.902;9.542;2023-03-11T04:15:56;3.42;;;2.10;;
462;SDS011;218;51.902;9.542;2023-03-11T04:18:23;4.53;;;2.60;;
462;SDS011;218;51.902;9.542;2023-03-11T04:20:50;2.55;;;1.83;;
462;SDS011;218;51.902;9.542;2023-03-11T04:23:16;3.25;;;2.20;;
462;SDS011;218;51.902;9.542;2023-03-11T04:25:43;6.22;;;2.38;;
462;SDS011;218;51.902;9.542;2023-03-11T04:28:12;3.08;;;1.50;;
462;SDS011;218;51.902;9.542;2023-03-11T04:30:38;3.55;;;2.78;;
462;SDS011;218;51.902;9.542;2023-03-11T04:33:06;3.80;;;2.50;;
462;SDS011;218;51.902;9.542;2023-03-11T04:35:33;3.88;;;2.50;;
462;SDS011;218;51.902;9.542;2023-03-11T04:38:00;4.15;;;2.38;;
462;SDS011;218;51.902;9.542;2023-03-11T04:40:27;3.40;;;2.20;;
462;SDS011;218;51.902;9.542;2023-03-11T04:42:54;2.53;;;2.08;;
462;SDS011;218;51.902;9.542;2023-03-11T04:45:22;4.45;;;2.40;;
462;SDS011;218;51.902;9.542;2023-03-11T04:47:49;5.18;;;2.20;;
462;SDS011;218;51.902;9.542;2023-03-11T04:50:16;4.10;;;2.60;;
462;SDS011;218;51.902;9.542;2023-03-11T04:52:44;5.40;;;2.55;;
462;SDS011;218;51.902;9.542;2023-03-11T04:55:11;3.65;;;3.42;;
462;SDS011;218;51.902;9.542;2023-03-11T04:57:39;3.10;;;2.40;;
462;SDS011;218;51.902;9.542;2023-03-11T05:00:07;6.72;;;2.30;;
462;SDS011;218;51.902;9.542;2023-03-11T05:02:37;2.38;;;2.15;;
462;SDS011;218;51.902;9.542;2023-03-11T05:05:05;2.78;;;2.55;;
462;SDS011;218;51.902;9.542;2023-03-11T05:07:33;4.05;;;2.40;;
462;SDS011;218;51.902;9.542;2023-03-11T05:10:01;3.70;;;2.30;;
462;SDS011;218;51.902;9.542;2023-03-11T05:12:28;5.63;;;2.25;;
462;SDS011;218;51.902;9.542;2023-03-11T05:14:55;3.65;;;2.15;;
462;SDS011;218;51.902;9.542;2023-03-11T05:17:22;3.83;;;2.40;;
462;SDS011;218;51.902;9.542;2023-03-11T05:19:50;3.92;;;2.90;;
462;SDS011;218;51.902;9.542;2023-03-11T05:22:17;2.55;;;1.80;;
462;SDS011;218;51.902;9.542;2023-03-11T05:24:44;4.03;;;2.38;;
462;SDS011;218;51.902;9.542;2023-03-11T05:27:12;3.88;;;2.35;;
462;SDS011;218;51.902;9.542;2023-03-11T05:29:41;8.02;;;3.67;;
462;SDS011;218;51.902;9.542;2023-03-11T05:32:09;2.50;;;2.30;;
462;SDS011;218;51.902;9.542;2023-03-11T05:34:36;8.65;;;4.57;;
462;SDS011;218;51.902;9.542;2023-03-11T05:37:04;5.32;;;3.30;;
462;SDS011;218;51.902;9.542;2023-03-11T05:39:31;5.10;;;3.08;;
462;SDS011;218;51.902;9.542;2023-03-11T05:41:58;4.55;;;3.20;;
462;SDS011;218;51.902;9.542;2023-03-11T05:44:25;3.90;;;3.15;;
462;SDS011;218;51.902;9.542;2023-03-11T05:46:52;4.00;;;3.40;;
462;SDS011;218;51.902;9.542;2023-03-11T05:49:19;4.50;;;3.70;;
462;SDS011;218;51.902;9.542;2023-03-11T05:51:46;6.97;;;3.05;;
462;SDS011;218;51.902;9.542;2023-03-11T05:54:15;4.63;;;3.83;;
462;SDS011;218;51.902;9.542;2023-03-11T05:56:43;6.20;;;4.60;;
462;SDS011;218;51.902;9.542;2023-03-11T05:59:11;4.20;;;3.75;;
462;SDS011;218;51.902;9.542;2023-03-11T06:01:38;4.13;;;3.75;;
462;SDS011;218;51.902;9.542;2023-03-11T06:04:07;3.80;;;3.42;;
462;SDS011;218;51.902;9.542;2023-03-11T06:06:34;4.05;;;3.75;;
462;SDS011;218;51.902;9.542;2023-03-11T06:09:01;5.80;;;4.18;;
462;SDS011;218;51.902;9.542;2023-03-11T06:11:30;5.32;;;4.45;;
462;SDS011;218;51.902;9.542;2023-03-11T06:13:57;4.43;;;3.55;;
462;SDS011;218;51.902;9.542;2023-03-11T06:16:24;3.97;;;3.60;;
462;SDS011;218;51.902;9.542;2023-03-11T06:18:50;4.75;;;4.22;;
462;SDS011;218;51.902;9.542;2023-03-11T06:21:18;4.22;;;3.83;;
462;SDS011;218;51.902;9.542;2023-03-11T06:23:46;4.15;;;3.67;;
462;SDS011;218;51.902;9.542;2023-03-11T06:26:14;7.20;;;4.10;;
462;SDS011;218;51.902;9.542;2023-03-11T06:28:44;3.88;;;3.45;;
462;SDS011;218;51.902;9.542;2023-03-11T06:31:13;4.57;;;3.42;;
462;SDS011;218;51.902;9.542;2023-03-11T06:33:41;5.82;;;4.70;;
462;SDS011;218;51.902;9.542;2023-03-11T06:36:09;5.25;;;4.68;;
462;SDS011;218;51.902;9.542;2023-03-11T06:38:37;8.57;;;4.90;;
462;SDS011;218;51.902;9.542;2023-03-11T06:41:04;6.20;;;4.07;;
462;SDS011;218;51.902;9.542;2023-03-11T06:43:32;5.90;;;4.10;;
462;SDS011;218;51.902;9.542;2023-03-11T06:46:06;8.60;;;4.22;;
462;SDS011;218;51.902;9.542;2023-03-11T06:48:34;6.15;;;4.03;;
462;SDS011;218;51.902;9.542;2023-03-11T06:51:01;4.85;;;3.72;;
462;SDS011;218;51.902;9.542;2023-03-11T06:53:28;4.20;;;3.80;;
462;SDS011;218;51.902;9.542;2023-03-11T06:55:59;5.78;;;4.05;;
462;SDS011;218;51.902;9.542;2023-03-11T06:58:26;6.18;;;5.60;;
462;SDS011;218;51.902;9.542;2023-03-11T07:00:54;5.65;;;4.85;;
462;SDS011;218;51.902;9.542;2023-03-11T07:03:26;6.05;;;4.55;;
462;SDS011;218;51.902;9.542;2023-03-11T07:05:53;5.15;;;4.75;;
462;SDS011;218;51.902;9.542;2023-03-11T07:08:19;8.85;;;5.05;;
462;SDS011;218;51.902;9.542;2023-03-11T07:10:46;14.00;;;6.75;;
462;SDS011;218;51.902;9.542;2023-03-11T07:13:25;6.05;;;4.80;;
462;SDS011;218;51.902;9.542;2023-03-11T07:15:58;6.22;;;3.80;;
462;SDS011;218;51.902;9.542;2023-03-11T07:18:27;7.43;;;4.40;;
462;SDS011;218;51.902;9.542;2023-03-11T07:20:56;4.50;;;3.53;;
462;SDS011;218;51.902;9.542;2023-03-11T07:23:23;6.38;;;4.03;;
462;SDS011;218;51.902;9.542;2023-03-11T07:25:50;6.88;;;4.32;;
462;SDS011;218;51.902;9.542;2023-03-11T07:28:19;4.07;;;3.67;;
462;SDS011;218;51.902;9.542;2023-03-11T07:30:46;5.32;;;4.20;;
462;SDS011;218;51.902;9.542;2023-03-11T07:33:14;6.30;;;4.00;;
462;SDS011;218;51.902;9.542;2023-03-11T07:35:43;3.85;;;3.45;;
462;SDS011;218;51.902;9.542;2023-03-11T07:38:09;4.50;;;2.85;;
462;SDS011;218;51.902;9.542;2023-03-11T07:40:36;6.03;;;3.45;;
462;SDS011;218;51.902;9.542;2023-03-11T07:43:03;3.97;;;2.80;;
462;SDS011;218;51.902;9.542;2023-03-11T07:45:30;3.33;;;3.13;;
462;SDS011;218;51.902;9.542;2023-03-11T07:47:57;3.45;;;3.15;;
462;SDS011;218;51.902;9.542;2023-03-11T07:50:24;3.85;;;3.55;;
462;SDS011;218;51.902;9.542;2023-03-11T07:52:52;6.38;;;3.75;;
462;SDS011;218;51.902;9.542;2023-03-11T07:55:19;2.72;;;2.53;;
462;SDS011;218;51.902;9.542;2023-03-11T07:57:46;4.13;;;3.40;;
462;SDS011;218;51.902;9.542;2023-03-11T08:00:15;3.88;;;3.13;;
462;SDS011;218;51.902;9.542;2023-03-11T08:02:43;5.00;;;3.35;;
462;SDS011;218;51.902;9.542;2023-03-11T08:05:10;4.95;;;2.85;;
462;SDS011;218;51.902;9.542;2023-03-11T08:07:37;3.00;;;2.80;;
462;SDS011;218;51.902;9.542;2023-03-11T08:10:06;2.83;;;2.47;;
462;SDS011;218;51.902;9.542;2023-03-11T08:12:34;5.82;;;2.97;;
462;SDS011;218;51.902;9.542;2023-03-11T08:15:00;2.60;;;2.40;;
462;SDS011;218;51.902;9.542;2023-03-11T08:17:27;4.70;;;3.03;;
462;SDS011;218;51.902;9.542;2023-03-11T08:19:54;4.32;;;2.45;;
462;SDS011;218;51.902;9.542;2023-03-11T08:22:21;6.82;;;3.90;;
462;SDS011;218;51.902;9.542;2023-03-11T08:24:49;3.37;;;3.17;;
462;SDS011;218;51.902;9.542;2023-03-11T08:27:18;4.90;;;3.45;;
462;SDS011;218;51.902;9.542;2023-03-11T08:29:45;2.92;;;2.67;;
462;SDS011;218;51.902;9.542;2023-03-11T08:32:12;4.18;;;3.70;;
462;SDS011;218;51.902;9.542;2023-03-11T08:34:39;5.70;;;3.15;;
462;SDS011;218;51.902;9.542;2023-03-11T08:37:09;3.38;;;3.00;;
462;SDS011;218;51.902;9.542;2023-03-11T08:39:35;3.13;;;2.90;;
462;SDS011;218;51.902;9.542;2023-03-11T08:42:02;5.80;;;2.85;;
462;SDS011;218;51.902;9.542;2023-03-11T08:44:31;11.43;;;3.90;;
462;SDS011;218;51.902;9.542;2023-03-11T08:46:59;4.65;;;3.63;;
462;SDS011;218;51.902;9.542;2023-03-11T08:49:26;6.03;;;5.13;;
462;SDS011;218;51.902;9.542;2023-03-11T08:51:53;4.50;;;3.53;;
462;SDS011;218;51.902;9.542;2023-03-11T08:54:20;2.65;;;2.55;;
462;SDS011;218;51.902;9.542;2023-03-11T08:56:47;2.53;;;2.33;;
462;SDS011;218;51.902;9.542;2023-03-11T08:59:14;3.60;;;3.30;;
462;SDS011;218;51.902;9.542;2023-03-11T09:01:42;3.65;;;3.35;;
462;SDS011;218;51.902;9.542;2023-03-11T09:04:09;5.82;;;4.28;;
462;SDS011;218;51.902;9.542;2023-03-11T09:06:36;8.30;;;3.75;;
462;SDS011;218;51.902;9.542;2023-03-11T09:09:06;3.00;;;2.80;;
462;SDS011;218;51.902;9.542;2023-03-11T09:11:34;5.13;;;2.88;;
462;SDS011;218;51.902;9.542;2023-03-11T09:14:01;2.90;;;2.40;;
462;SDS011;218;51.902;9.542;2023-03-11T09:16:28;2.28;;;1.90;;
462;SDS011;218;51.902;9.542;2023-03-11T09:18:57;4.05;;;2.00;;
462;SDS011;218;51.902;9.542;2023-03-11T09:21:24;2.63;;;1.83;;
462;SDS011;218;51.902;9.542;2023-03-11T09:23:51;3.42;;;2.05;;
462;SDS011;218;51.902;9.542;2023-03-11T09:26:18;3.00;;;2.70;;
462;SDS011;218;51.902;9.542;2023-03-11T09:28:45;2.92;;;2.47;;
462;SDS011;218;51.902;9.542;2023-03-11T09:31:13;3.97;;;2.20;;
462;SDS011;218;51.902;9.542;2023-03-11T09:33:41;3.17;;;2.15;;
462;SDS011;218;51.902;9.542;2023-03-11T09:36:11;2.78;;;2.45;;
462;SDS011;218;51.902;9.542;2023-03-11T09:38:39;2.55;;;2.33;;
462;SDS011;218;51.902;9.542;2023-03-11T09:41:07;2.80;;;2.00;;
462;SDS011;218;51.902;9.542;2023-03-11T09:43:46;3.67;;;2.25;;
462;SDS011;218;51.902;9.542;2023-03-11T09:46:27;4.22;;;2.47;;
462;SDS011;218;51.902;9.542;2023-03-11T09:49:14;2.78;;;1.40;;
462;SDS011;218;51.902;9.542;2023-03-11T09:51:50;6.15;;;2.55;;
462;SDS011;218;51.902;9.542;2023-03-11T09:54:22;2.92;;;2.25;;
462;SDS011;218;51.902;9.542;2023-03-11T09:56:53;2.22;;;1.88;;
462;SDS011;218;51.902;9.542;2023-03-11T09:59:22;2.72;;;2.10;;
462;SDS011;218;51.902;9.542;2023-03-11T10:01:55;2.40;;;2.17;;
462;SDS011;218;51.902;9.542;2023-03-11T10:04:22;3.58;;;2.70;;
462;SDS011;218;51.902;9.542;2023-03-11T10:06:54;2.85;;;1.95;;
462;SDS011;218;51.902;9.542;2023-03-11T10:09:28;3.25;;;1.83;;
462;SDS011;218;51.902;9.542;2023-03-11T10:12:02;5.68;;;1.98;;
462;SDS011;218;51.902;9.542;2023-03-11T10:14:36;3.47;;;1.70;;
462;SDS011;218;51.902;9.542;2023-03-11T10:17:12;3.78;;;2.60;;
462;SDS011;218;51.902;9.542;2023-03-11T10:19:47;3.00;;;1.55;;
462;SDS011;218;51.902;9.542;2023-03-11T10:22:22;2.65;;;2.35;;
462;SDS011;218;51.902;9.542;2023-03-11T10:24:58;3.58;;;2.28;;
462;SDS011;218;51.902;9.542;2023-03-11T10:27:34;2.00;;;1.80;;
462;SDS011;218;51.902;9.542;2023-03-11T10:30:05;2.42;;;2.22;;
462;SDS011;218;51.902;9.542;2023-03-11T10:32:39;3.20;;;1.88;;
462;SDS011;218;51.902;9.542;2023-03-11T10:35:16;4.18;;;1.75;;
462;SDS011;218;51.902;9.542;2023-03-11T10:37:49;2.25;;;1.90;;
462;SDS011;218;51.902;9.542;2023-03-11T10:40:18;3.85;;;1.75;;
462;SDS011;218;51.902;9.542;2023-03-11T10:42:50;1.85;;;1.65;;
462;SDS011;218;51.902;9.542;2023-03-11T10:45:18;3.35;;;1.90;;
462;SDS011;218;51.902;9.542;2023-03-11T10:47:47;3.03;;;1.95;;
462;SDS011;218;51.902;9.542;2023-03-11T10:50:14;3.78;;;2.13;;
462;SDS011;218;51.902;9.542;2023-03-11T10:52:43;3.47;;;1.80;;
462;SDS011;218;51.902;9.542;2023-03-11T10:55:28;1.70;;;1.60;;
462;SDS011;218;51.902;9.542;2023-03-11T10:58:00;1.77;;;1.13;;
462;SDS011;218;51.902;9.542;2023-03-11T11:00:30;3.53;;;2.00;;
462;SDS011;218;51.902;9.542;2023-03-11T11:02:57;5.90;;;1.80;;
462;SDS011;218;51.902;9.542;2023-03-11T11:05:27;3.25;;;1.80;;
462;SDS011;218;51.902;9.542;2023-03-11T11:08:04;1.92;;;1.45;;
462;SDS011;218;51.902;9.542;2023-03-11T11:10:34;5.93;;;1.83;;
462;SDS011;218;51.902;9.542;2023-03-11T11:13:02;2.00;;;1.27;;
462;SDS011;218;51.902;9.542;2023-03-11T11:15:50;5.82;;;1.60;;
462;SDS011;218;51.902;9.542;2023-03-11T11:18:20;1.83;;;1.58;;
462;SDS011;218;51.902;9.542;2023-03-11T11:20:55;2.25;;;1.40;;
462;SDS011;218;51.902;9.542;2023-03-11T11:23:27;2.78;;;1.60;;
462;SDS011;218;51.902;9.542;2023-03-11T11:25:58;2.58;;;1.50;;
462;SDS011;218;51.902;9.542;2023-03-11T11:28:28;2.40;;;1.30;;
462;SDS011;218;51.902;9.542;2023-03-11T11:30:56;1.55;;;1.45;;
462;SDS011;218;51.902;9.542;2023-03-11T11:33:25;4.60;;;1.83;;
462;SDS011;218;51.902;9.542;2023-03-11T11:35:53;5.45;;;1.50;;
462;SDS011;218;51.902;9.542;2023-03-11T11:38:21;1.42;;;1.33;;
462;SDS011;218;51.902;9.542;2023-03-11T11:40:50;1.67;;;1.58;;
462;SDS011;218;51.902;9.542;2023-03-11T11:43:20;3.72;;;1.42;;
462;SDS011;218;51.902;9.542;2023-03-11T11:45:58;2.42;;;1.80;;
462;SDS011;218;51.902;9.542;2023-03-11T11:48:31;1.60;;;1.40;;
462;SDS011;218;51.902;9.542;2023-03-11T11:51:06;3.63;;;1.58;;
462;SDS011;218;51.902;9.542;2023-03-11T11:53:41;3.65;;;1.48;;
462;SDS011;218;51.902;9.542;2023-03-11T11:56:10;1.85;;;1.75;;
462;SDS011;218;51.902;9.542;2023-03-11T11:58:39;3.58;;;1.85;;
462;SDS011;218;51.902;9.542;2023-03-11T12:01:12;3.17;;;1.80;;
462;SDS011;218;51.902;9.542;2023-03-11T12:03:49;2.70;;;1.70;;
462;SDS011;218;51.902;9.542;2023-03-11T12:06:33;3.30;;;1.30;;
462;SDS011;218;51.902;9.542;2023-03-11T12:09:09;3.38;;;1.67;;
462;SDS011;218;51.902;9.542;2023-03-11T12:11:48;2.58;;;1.50;;
462;SDS011;218;51.902;9.542;2023-03-11T12:14:20;1.75;;;1.65;;
462;SDS011;218;51.902;9.542;2023-03-11T12:16:54;4.90;;;2.30;;
462;SDS011;218;51.902;9.542;2023-03-11T12:19:27;2.55;;;1.38;;
462;SDS011;218;51.902;9.542;2023-03-11T12:22:08;7.60;;;1.65;;
462;SDS011;218;51.902;9.542;2023-03-11T12:25:04;4.72;;;2.03;;
462;SDS011;218;51.902;9.542;2023-03-11T12:27:46;1.45;;;1.35;;
462;SDS011;218;51.902;9.542;2023-03-11T12:30:20;3.70;;;1.90;;
462;SDS011;218;51.902;9.542;2023-03-11T12:32:52;2.28;;;1.20;;
462;SDS011;218;51.902;9.542;2023-03-11T12:35:22;1.48;;;1.38;;
462;SDS011;218;51.902;9.542;2023-03-11T12:37:55;2.67;;;1.48;;
462;SDS011;218;51.902;9.542;2023-03-11T12:43:22;2.50;;;1.80;;
462;SDS011;218;51.902;9.542;2023-03-11T12:45:51;1.40;;;1.30;;
462;SDS011;218;51.902;9.542;2023-03-11T12:48:32;1.42;;;1.33;;
462;SDS011;218;51.902;9.542;2023-03-11T12:51:01;1.60;;;1.50;;
462;SDS011;218;51.902;9.542;2023-03-11T12:53:42;1.48;;;1.38;;
462;SDS011;218;51.902;9.542;2023-03-11T12:56:19;1.50;;;1.40;;
462;SDS011;218;51.902;9.542;2023-03-11T12:59:07;1.52;;;1.42;;
462;SDS011;218;51.902;9.542;2023-03-11T13:01:52;4.53;;;1.63;;
462;SDS011;218;51.902;9.542;2023-03-11T13:04:21;1.40;;;1.30;;
462;SDS011;218;51.902;9.542;2023-03-11T13:07:11;2.15;;;1.33;;
462;SDS011;218;51.902;9.542;2023-03-11T13:13:00;2.15;;;1.40;;
462;SDS011;218;51.902;9.542;2023-03-11T13:15:32;2.72;;;1.58;;
462;SDS011;218;51.902;9.542;2023-03-11T13:18:02;2.20;;;1.40;;
462;SDS011;218;51.902;9.542;2023-03-11T13:20:50;3.57;;;1.67;;
462;SDS011;218;51.902;9.542;2023-03-11T13:23:30;4.20;;;2.00;;
462;SDS011;218;51.902;9.542;2023-03-11T13:26:09;1.65;;;1.20;;
462;SDS011;218;51.902;9.542;2023-03-11T13:28:44;1.60;;;1.47;;
462;SDS011;218;51.902;9.542;2023-03-11T13:31:34;1.37;;;1.17;;
462;SDS011;218;51.902;9.542;2023-03-11T13:34:08;2.63;;;1.60;;
462;SDS011;218;51.902;9.542;2023-03-11T13:36:42;3.70;;;1.52;;
462;SDS011;218;51.902;9.542;2023-03-11T13:39:19;1.80;;;1.43;;
462;SDS011;218;51.902;9.542;2023-03-11T13:41:48;3.93;;;1.40;;
462;SDS011;218;51.902;9.542;2023-03-11T13:44:19;2.60;;;1.70;;
462;SDS011;218;51.902;9.542;2023-03-11T13:46:46;2.17;;;1.63;;
462;SDS011;218;51.902;9.542;2023-03-11T13:49:21;2.00;;;1.13;;
462;SDS011;218;51.902;9.542;2023-03-11T13:51:52;1.23;;;1.17;;
462;SDS011;218;51.902;9.542;2023-03-11T13:54:35;1.70;;;1.60;;
462;SDS011;218;51.902;9.542;2023-03-11T13:57:03;2.67;;;1.30;;
462;SDS011;218;51.902;9.542;2023-03-11T13:59:31;1.43;;;1.20;;
462;SDS011;218;51.902;9.542;2023-03-11T14:01:59;6.80;;;1.70;;
462;SDS011;218;51.902;9.542;2023-03-11T14:04:29;3.17;;;1.23;;
462;SDS011;218;51.902;9.542;2023-03-11T14:06:57;1.57;;;1.33;;
462;SDS011;218;51.902;9.542;2023-03-11T14:09:25;2.08;;;1.48;;
462;SDS011;218;51.902;9.542;2023-03-11T14:11:53;4.30;;;1.67;;
462;SDS011;218;51.902;9.542;2023-03-11T14:17:07;1.87;;;1.30;;
462;SDS011;218;51.902;9.542;2023-03-11T14:19:41;2.95;;;1.25;;
462;SDS011;218;51.902;9.542;2023-03-11T14:22:08;2.20;;;2.00;;
462;SDS011;218;51.902;9.542;2023-03-11T14:24:35;4.28;;;1.23;;
462;SDS011;218;51.902;9.542;2023-03-11T14:27:06;1.55;;;1.45;;
462;SDS011;218;51.902;9.542;2023-03-11T14:29:35;2.30;;;1.20;;
462;SDS011;218;51.902;9.542;2023-03-11T14:32:14;1.50;;;0.93;;
462;SDS011;218;51.902;9.542;2023-03-11T14:34:43;1.35;;;1.25;;
462;SDS011;218;51.902;9.542;2023-03-11T14:37:19;2.75;;;1.40;;
462;SDS011;218;51.902;9.542;2023-03-11T14:39:49;3.10;;;0.95;;
462;SDS011;218;51.902;9.542;2023-03-11T14:42:17;1.65;;;1.25;;
462;SDS011;218;51.902;9.542;2023-03-11T14:44:48;1.15;;;1.05;;
462;SDS011;218;51.902;9.542;2023-03-11T14:47:18;1.83;;;1.10;;
462;SDS011;218;51.902;9.542;2023-03-11T14:49:48;2.03;;;1.20;;
462;SDS011;218;51.902;9.542;2023-03-11T14:52:17;2.28;;;1.30;;
462;SDS011;218;51.902;9.542;2023-03-11T14:54:46;1.63;;;1.23;;
462;SDS011;218;51.902;9.542;2023-03-11T14:57:17;1.20;;;1.10;;
462;SDS011;218;51.902;9.542;2023-03-11T14:59:45;1.65;;;1.55;;
462;SDS011;218;51.902;9.542;2023-03-11T15:02:31;1.35;;;1.00;;
462;SDS011;218;51.902;9.542;2023-03-11T15:05:02;2.22;;;1.50;;
462;SDS011;218;51.902;9.542;2023-03-11T15:07:31;2.38;;;1.45;;
462;SDS011;218;51.902;9.542;2023-03-11T15:10:01;3.88;;;1.20;;
462;SDS011;218;51.902;9.542;2023-03-11T15:12:29;2.03;;;1.77;;
462;SDS011;218;51.902;9.542;2023-03-11T15:14:57;3.92;;;1.20;;
462;SDS011;218;51.902;9.542;2023-03-11T15:17:25;1.95;;;1.55;;
462;SDS011;218;51.902;9.542;2023-03-11T15:19:54;4.60;;;1.65;;
462;SDS011;218;51.902;9.542;2023-03-11T15:22:24;2.17;;;1.30;;
462;SDS011;218;51.902;9.542;2023-03-11T15:24:53;2.35;;;1.30;;
462;SDS011;218;51.902;9.542;2023-03-11T15:27:25;1.90;;;1.13;;
462;SDS011;218;51.902;9.542;2023-03-11T15:29:52;4.17;;;1.60;;
462;SDS011;218;51.902;9.542;2023-03-11T15:32:23;3.13;;;1.30;;
462;SDS011;218;51.902;9.542;2023-03-11T15:34:58;4.00;;;1.55;;
462;SDS011;218;51.902;9.542;2023-03-11T15:37:26;1.10;;;1.00;;
462;SDS011;218;51.902;9.542;2023-03-11T15:39:56;1.73;;;1.63;;
462;SDS011;218;51.902;9.542;2023-03-11T15:42:24;1.80;;;1.27;;
462;SDS011;218;51.902;9.542;2023-03-11T15:47:38;3.28;;;1.63;;
462;SDS011;218;51.902;9.542;2023-03-11T15:50:12;1.35;;;1.25;;
462;SDS011;218;51.902;9.542;2023-03-11T15:52:41;2.80;;;1.58;;
462;SDS011;218;51.902;9.542;2023-03-11T15:55:08;4.97;;;1.33;;
462;SDS011;218;51.902;9.542;2023-03-11T15:57:36;2.33;;;1.52;;
462;SDS011;218;51.902;9.542;2023-03-11T16:00:06;2.75;;;2.55;;
462;SDS011;218;51.902;9.542;2023-03-11T16:02:33;2.67;;;2.00;;
462;SDS011;218;51.902;9.542;2023-03-11T16:05:00;3.30;;;1.52;;
462;SDS011;218;51.902;9.542;2023-03-11T16:07:27;2.35;;;1.40;;
462;SDS011;218;51.902;9.542;2023-03-11T16:09:56;4.05;;;1.90;;
462;SDS011;218;51.902;9.542;2023-03-11T16:12:23;1.50;;;1.40;;